sensor_id;sensor_type;location;lat;lon;timestamp;pressure;altitude;pressure_sealevel;temperature;humidity
79481;BME280;68944;48.262;14.208;2024-03-08T00:02:16;98581.63;;;2.47;100.00
79481;BME280;68944;48.262;14.208;2024-03-08T00:04:42;98575.25;;;2.50;100.00
79481;BME280;68944;48.262;14.208;2024-03-08T00:07:08;98576.88;;;2.51;100.00
79481;BME280;68944;48.262;14.208;2024-03-08T00:09:33;98586.69;;;2.49;100.00
79481;BME280;68944;48.262;14.208;2024-03-08T00:12:00;98576.41;;;2.47;100.00
79481;BME280;68944;48.262;14.208;2024-03-08T00:14:25;98573.91;;;2.46;100.00
79481;BME280;68944;48.262;14.208;2024-03-08T00:16:51;98569.69;;;2.45;100.00
79481;BME280;68944;48.262;14.208;2024-03-08T00:19:18;98569.84;;;2.43;100.00
79481;BME280;68944;48.262;14.208;2024-03-08T00:21:43;98567.91;;;2.45;100.00
79481;BME280;68944;48.262;14.208;2024-03-08T00:24:11;98565.41;;;2.44;100.00
79481;BME280;68944;48.262;14.208;2024-03-08T00:26:37;98566.06;;;2.37;100.00
79481;BME280;68944;48.262;14.208;2024-03-08T00:29:03;98563.09;;;2.32;100.00
79481;BME280;68944;48.262;14.208;2024-03-08T00:31:29;98561.50;;;2.31;100.00
79481;BME280;68944;48.262;14.208;2024-03-08T00:33:56;98563.63;;;2.36;100.00
79481;BME280;68944;48.262;14.208;2024-03-08T00:36:22;98551.00;;;2.23;100.00
79481;BME280;68944;48.262;14.208;2024-03-08T00:38:48;98550.00;;;2.15;100.00
79481;BME280;68944;48.262;14.208;2024-03-08T00:41:14;98555.38;;;2.14;100.00
79481;BME280;68944;48.262;14.208;2024-03-08T00:43:39;98549.31;;;2.13;100.00
79481;BME280;68944;48.262;14.208;2024-03-08T00:46:05;98541.47;;;2.05;100.00
79481;BME280;68944;48.262;14.208;2024-03-08T00:48:30;98540.47;;;1.98;100.00
79481;BME280;68944;48.262;14.208;2024-03-08T00:50:56;98538.84;;;1.97;100.00
79481;BME280;68944;48.262;14.208;2024-03-08T00:53:22;98542.41;;;1.96;100.00
79481;BME280;68944;48.262;14.208;2024-03-08T00:55:48;98538.66;;;1.90;100.00
79481;BME280;68944;48.262;14.208;2024-03-08T00:58:14;98533.25;;;1.83;100.00
79481;BME280;68944;48.262;14.208;2024-03-08T01:00:39;98531.59;;;1.82;100.00
79481;BME280;68944;48.262;14.208;2024-03-08T01:03:06;98524.72;;;1.81;100.00
79481;BME280;68944;48.262;14.208;2024-03-08T01:05:32;98523.91;;;1.80;100.00
79481;BME280;68944;48.262;14.208;2024-03-08T01:07:58;98522.75;;;1.75;100.00
79481;BME280;68944;48.262;14.208;2024-03-08T01:10:23;98514.56;;;1.69;100.00
79481;BME280;68944;48.262;14.208;2024-03-08T01:12:49;98519.91;;;1.59;100.00
79481;BME280;68944;48.262;14.208;2024-03-08T01:15:19;98517.59;;;1.56;100.00
79481;BME280;68944;48.262;14.208;2024-03-08T01:17:45;98511.22;;;1.51;100.00
79481;BME280;68944;48.262;14.208;2024-03-08T01:20:13;98510.69;;;1.47;100.00
79481;BME280;68944;48.262;14.208;2024-03-08T01:22:40;98516.38;;;1.42;100.00
79481;BME280;68944;48.262;14.208;2024-03-08T01:25:06;98512.16;;;1.41;100.00
79481;BME280;68944;48.262;14.208;2024-03-08T01:27:31;98502.50;;;1.42;100.00
79481;BME280;68944;48.262;14.208;2024-03-08T01:29:57;98502.69;;;1.40;100.00
79481;BME280;68944;48.262;14.208;2024-03-08T01:32:25;98495.00;;;1.39;100.00
79481;BME280;68944;48.262;14.208;2024-03-08T01:34:51;98500.06;;;1.40;100.00
79481;BME280;68944;48.262;14.208;2024-03-08T01:37:16;98500.03;;;1.32;100.00
79481;BME280;68944;48.262;14.208;2024-03-08T01:39:42;98500.34;;;1.29;100.00
79481;BME280;68944;48.262;14.208;2024-03-08T01:42:07;98497.56;;;1.30;100.00
79481;BME280;68944;48.262;14.208;2024-03-08T01:44:33;98494.28;;;1.28;100.00
79481;BME280;68944;48.262;14.208;2024-03-08T01:47:00;98494.28;;;1.28;100.00
79481;BME280;68944;48.262;14.208;2024-03-08T01:49:26;98491.19;;;1.24;100.00
79481;BME280;68944;48.262;14.208;2024-03-08T01:51:51;98482.97;;;1.19;100.00
79481;BME280;68944;48.262;14.208;2024-03-08T01:54:18;98489.19;;;1.18;100.00
79481;BME280;68944;48.262;14.208;2024-03-08T01:56:45;98483.97;;;1.18;100.00
79481;BME280;68944;48.262;14.208;2024-03-08T01:59:12;98481.19;;;1.20;100.00
79481;BME280;68944;48.262;14.208;2024-03-08T02:01:40;98487.09;;;1.22;100.00
79481;BME280;68944;48.262;14.208;2024-03-08T02:04:06;98480.69;;;1.16;100.00
79481;BME280;68944;48.262;14.208;2024-03-08T02:06:32;98479.22;;;1.13;100.00
79481;BME280;68944;48.262;14.208;2024-03-08T02:08:58;98471.69;;;1.10;100.00
79481;BME280;68944;48.262;14.208;2024-03-08T02:11:24;98469.25;;;1.09;100.00
79481;BME280;68944;48.262;14.208;2024-03-08T02:13:49;98463.03;;;1.10;100.00
79481;BME280;68944;48.262;14.208;2024-03-08T02:16:21;98468.06;;;1.03;100.00
79481;BME280;68944;48.262;14.208;2024-03-08T02:18:48;98456.94;;;1.01;100.00
79481;BME280;68944;48.262;14.208;2024-03-08T02:21:14;98463.59;;;0.95;100.00
79481;BME280;68944;48.262;14.208;2024-03-08T02:23:43;98458.53;;;0.94;100.00
79481;BME280;68944;48.262;14.208;2024-03-08T02:26:09;98449.88;;;0.93;100.00
79481;BME280;68944;48.262;14.208;2024-03-08T02:28:35;98457.03;;;0.91;100.00
79481;BME280;68944;48.262;14.208;2024-03-08T02:31:01;98454.75;;;0.88;100.00
79481;BME280;68944;48.262;14.208;2024-03-08T02:33:28;98453.78;;;0.89;100.00
79481;BME280;68944;48.262;14.208;2024-03-08T02:35:54;98451.50;;;0.86;100.00
79481;BME280;68944;48.262;14.208;2024-03-08T02:38:22;98446.13;;;0.87;100.00
79481;BME280;68944;48.262;14.208;2024-03-08T02:40:49;98451.16;;;0.89;100.00
79481;BME280;68944;48.262;14.208;2024-03-08T02:43:16;98444.16;;;0.89;100.00
79481;BME280;68944;48.262;14.208;2024-03-08T02:45:43;98448.06;;;0.85;100.00
79481;BME280;68944;48.262;14.208;2024-03-08T02:48:09;98447.06;;;0.86;100.00
79481;BME280;68944;48.262;14.208;2024-03-08T02:50:35;98450.50;;;0.87;100.00
79481;BME280;68944;48.262;14.208;2024-03-08T02:53:02;98452.28;;;0.86;100.00
79481;BME280;68944;48.262;14.208;2024-03-08T02:55:27;98451.50;;;0.86;100.00
79481;BME280;68944;48.262;14.208;2024-03-08T02:57:53;98448.50;;;0.81;100.00
79481;BME280;68944;48.262;14.208;2024-03-08T03:00:22;98451.41;;;0.77;100.00
79481;BME280;68944;48.262;14.208;2024-03-08T03:02:52;98454.84;;;0.78;100.00
79481;BME280;68944;48.262;14.208;2024-03-08T03:05:22;98451.72;;;0.74;100.00
79481;BME280;68944;48.262;14.208;2024-03-08T03:07:48;98452.41;;;0.76;100.00
79481;BME280;68944;48.262;14.208;2024-03-08T03:10:16;98452.41;;;0.76;100.00
79481;BME280;68944;48.262;14.208;2024-03-08T03:12:42;98440.47;;;0.74;100.00
79481;BME280;68944;48.262;14.208;2024-03-08T03:15:08;98447.47;;;0.73;100.00
79481;BME280;68944;48.262;14.208;2024-03-08T03:17:34;98448.91;;;0.67;100.00
79481;BME280;68944;48.262;14.208;2024-03-08T03:19:59;98442.50;;;0.62;100.00
79481;BME280;68944;48.262;14.208;2024-03-08T03:22:30;98440.72;;;0.62;100.00
79481;BME280;68944;48.262;14.208;2024-03-08T03:24:55;98440.53;;;0.55;100.00
79481;BME280;68944;48.262;14.208;2024-03-08T03:27:23;98443.78;;;0.58;100.00
79481;BME280;68944;48.262;14.208;2024-03-08T03:29:50;98442.69;;;0.60;100.00
79481;BME280;68944;48.262;14.208;2024-03-08T03:32:17;98444.75;;;0.56;100.00
79481;BME280;68944;48.262;14.208;2024-03-08T03:34:44;98446.41;;;0.58;100.00
79481;BME280;68944;48.262;14.208;2024-03-08T03:37:10;98454.34;;;0.56;100.00
79481;BME280;68944;48.262;14.208;2024-03-08T03:39:39;98438.88;;;0.54;100.00
79481;BME280;68944;48.262;14.208;2024-03-08T03:42:15;98434.63;;;0.53;100.00
79481;BME280;68944;48.262;14.208;2024-03-08T03:44:44;98431.13;;;0.44;100.00
79481;BME280;68944;48.262;14.208;2024-03-08T03:47:10;98431.59;;;0.40;100.00
79481;BME280;68944;48.262;14.208;2024-03-08T03:49:36;98435.19;;;0.39;100.00
79481;BME280;68944;48.262;14.208;2024-03-08T03:52:02;98431.91;;;0.37;100.00
79481;BME280;68944;48.262;14.208;2024-03-08T03:54:30;98431.75;;;0.38;100.00
79481;BME280;68944;48.262;14.208;2024-03-08T03:56:56;98427.34;;;0.39;100.00
79481;BME280;68944;48.262;14.208;2024-03-08T03:59:22;98420.34;;;0.39;100.00
79481;BME280;68944;48.262;14.208;2024-03-08T04:01:47;98423.88;;;0.30;100.00
79481;BME280;68944;48.262;14.208;2024-03-08T04:04:15;98418.22;;;0.35;100.00
79481;BME280;68944;48.262;14.208;2024-03-08T04:06:40;98417.28;;;0.26;100.00
79481;BME280;68944;48.262;14.208;2024-03-08T04:09:06;98418.66;;;0.30;100.00
79481;BME280;68944;48.262;14.208;2024-03-08T04:11:32;98408.22;;;0.30;100.00
79481;BME280;68944;48.262;14.208;2024-03-08T04:13:57;98416.25;;;0.37;100.00
79481;BME280;68944;48.262;14.208;2024-03-08T04:16:23;98401.19;;;0.30;100.00
79481;BME280;68944;48.262;14.208;2024-03-08T04:18:49;98399.97;;;0.35;100.00
79481;BME280;68944;48.262;14.208;2024-03-08T04:21:15;98395.41;;;0.37;100.00
79481;BME280;68944;48.262;14.208;2024-03-08T04:23:41;98391.47;;;0.32;100.00
79481;BME280;68944;48.262;14.208;2024-03-08T04:26:06;98395.03;;;0.31;100.00
79481;BME280;68944;48.262;14.208;2024-03-08T04:28:34;98398.81;;;0.37;100.00
79481;BME280;68944;48.262;14.208;2024-03-08T04:31:00;98385.94;;;0.36;100.00
79481;BME280;68944;48.262;14.208;2024-03-08T04:33:28;98382.00;;;0.31;100.00
79481;BME280;68944;48.262;14.208;2024-03-08T04:35:54;98382.00;;;0.31;100.00
79481;BME280;68944;48.262;14.208;2024-03-08T04:38:19;98386.25;;;0.32;100.00
79481;BME280;68944;48.262;14.208;2024-03-08T04:40:46;98380.34;;;0.30;100.00
79481;BME280;68944;48.262;14.208;2024-03-08T04:43:12;98370.09;;;0.29;100.00
79481;BME280;68944;48.262;14.208;2024-03-08T04:45:37;98374.19;;;0.31;100.00
79481;BME280;68944;48.262;14.208;2024-03-08T04:48:03;98374.34;;;0.30;100.00
79481;BME280;68944;48.262;14.208;2024-03-08T04:50:29;98378.72;;;0.29;100.00
79481;BME280;68944;48.262;14.208;2024-03-08T04:52:55;98379.69;;;0.28;100.00
79481;BME280;68944;48.262;14.208;2024-03-08T04:55:21;98380.34;;;0.30;100.00
79481;BME280;68944;48.262;14.208;2024-03-08T05:00:21;98377.75;;;0.30;100.00
79481;BME280;68944;48.262;14.208;2024-03-08T05:02:47;98385.94;;;0.36;100.00
79481;BME280;68944;48.262;14.208;2024-03-08T05:05:13;98379.91;;;0.35;100.00
79481;BME280;68944;48.262;14.208;2024-03-08T05:07:39;98375.50;;;0.36;100.00
79481;BME280;68944;48.262;14.208;2024-03-08T05:10:06;98377.16;;;0.37;100.00
79481;BME280;68944;48.262;14.208;2024-03-08T05:12:33;98374.22;;;0.40;100.00
79481;BME280;68944;48.262;14.208;2024-03-08T05:14:59;98372.63;;;0.39;100.00
79481;BME280;68944;48.262;14.208;2024-03-08T05:17:25;98370.00;;;0.39;100.00
79481;BME280;68944;48.262;14.208;2024-03-08T05:19:51;98371.59;;;0.31;100.00
79481;BME280;68944;48.262;14.208;2024-03-08T05:22:17;98370.63;;;0.32;100.00
79481;BME280;68944;48.262;14.208;2024-03-08T05:24:44;98378.56;;;0.31;100.00
79481;BME280;68944;48.262;14.208;2024-03-08T05:27:09;98368.97;;;0.31;100.00
79481;BME280;68944;48.262;14.208;2024-03-08T05:29:35;98371.59;;;0.31;100.00
79481;BME280;68944;48.262;14.208;2024-03-08T05:32:00;98371.28;;;0.35;100.00
79481;BME280;68944;48.262;14.208;2024-03-08T05:34:27;98377.75;;;0.30;100.00
79481;BME280;68944;48.262;14.208;2024-03-08T05:36:54;98378.44;;;0.32;100.00
79481;BME280;68944;48.262;14.208;2024-03-08T05:39:20;98373.53;;;0.29;100.00
79481;BME280;68944;48.262;14.208;2024-03-08T05:41:45;98377.47;;;0.33;100.00
79481;BME280;68944;48.262;14.208;2024-03-08T05:44:12;98373.38;;;0.31;100.00
79481;BME280;68944;48.262;14.208;2024-03-08T05:46:39;98376.50;;;0.35;100.00
79481;BME280;68944;48.262;14.208;2024-03-08T05:49:05;98372.41;;;0.32;100.00
79481;BME280;68944;48.262;14.208;2024-03-08T05:51:35;98375.50;;;0.36;100.00
79481;BME280;68944;48.262;14.208;2024-03-08T05:54:09;98365.91;;;0.36;100.00
79481;BME280;68944;48.262;14.208;2024-03-08T05:56:38;98364.25;;;0.35;100.00
79481;BME280;68944;48.262;14.208;2024-03-08T05:59:07;98373.22;;;0.32;100.00
79481;BME280;68944;48.262;14.208;2024-03-08T06:01:33;98368.69;;;0.35;100.00
79481;BME280;68944;48.262;14.208;2024-03-08T06:04:02;98374.22;;;0.40;100.00
79481;BME280;68944;48.262;14.208;2024-03-08T06:06:28;98377.81;;;0.39;100.00
79481;BME280;68944;48.262;14.208;2024-03-08T06:08:55;98374.22;;;0.40;100.00
79481;BME280;68944;48.262;14.208;2024-03-08T06:11:24;98369.44;;;0.53;100.00
79481;BME280;68944;48.262;14.208;2024-03-08T06:13:52;98370.91;;;0.56;100.00
79481;BME280;68944;48.262;14.208;2024-03-08T06:16:20;98373.06;;;0.61;100.00
79481;BME280;68944;48.262;14.208;2024-03-08T06:18:46;98365.31;;;0.69;100.00
79481;BME280;68944;48.262;14.208;2024-03-08T06:21:12;98366.94;;;0.70;100.00
79481;BME280;68944;48.262;14.208;2024-03-08T06:23:38;98364.50;;;0.68;100.00
79481;BME280;68944;48.262;14.208;2024-03-08T06:26:04;98369.03;;;0.66;100.00
79481;BME280;68944;48.262;14.208;2024-03-08T06:28:30;98363.03;;;0.74;100.00
79481;BME280;68944;48.262;14.208;2024-03-08T06:31:01;98367.66;;;0.81;100.00
79481;BME280;68944;48.262;14.208;2024-03-08T06:33:28;98371.88;;;0.82;100.00
79481;BME280;68944;48.262;14.208;2024-03-08T06:35:54;98359.19;;;0.87;100.00
79481;BME280;68944;48.262;14.208;2024-03-08T06:38:23;98360.19;;;0.86;100.00
79481;BME280;68944;48.262;14.208;2024-03-08T06:40:50;98358.25;;;0.88;100.00
79481;BME280;68944;48.262;14.208;2024-03-08T06:43:17;98350.09;;;0.91;100.00
79481;BME280;68944;48.262;14.208;2024-03-08T06:45:43;98361.22;;;1.01;100.00
79481;BME280;68944;48.262;14.208;2024-03-08T06:48:19;98358.00;;;1.08;100.00
79481;BME280;68944;48.262;14.208;2024-03-08T06:50:46;98358.19;;;1.15;100.00
79481;BME280;68944;48.262;14.208;2024-03-08T06:53:13;98355.72;;;1.13;100.00
79481;BME280;68944;48.262;14.208;2024-03-08T06:55:39;98351.53;;;1.20;100.00
79481;BME280;68944;48.262;14.208;2024-03-08T06:58:05;98353.97;;;1.22;100.00
79481;BME280;68944;48.262;14.208;2024-03-08T07:00:32;98351.19;;;1.23;100.00
79481;BME280;68944;48.262;14.208;2024-03-08T07:02:58;98340.28;;;1.28;100.00
79481;BME280;68944;48.262;14.208;2024-03-08T07:05:28;98341.28;;;1.35;100.00
79481;BME280;68944;48.262;14.208;2024-03-08T07:07:54;98352.06;;;1.41;100.00
79481;BME280;68944;48.262;14.208;2024-03-08T07:10:21;98354.69;;;1.49;100.00
79481;BME280;68944;48.262;14.208;2024-03-08T07:12:50;98351.63;;;1.62;100.00
79481;BME280;68944;48.262;14.208;2024-03-08T07:15:16;98348.53;;;1.67;100.00
79481;BME280;68944;48.262;14.208;2024-03-08T07:17:45;98343.47;;;1.65;100.00
79481;BME280;68944;48.262;14.208;2024-03-08T07:20:11;98333.34;;;1.79;100.00
79481;BME280;68944;48.262;14.208;2024-03-08T07:22:38;98333.22;;;1.80;100.00
79481;BME280;68944;48.262;14.208;2024-03-08T07:25:07;98329.94;;;1.78;100.00
79481;BME280;68944;48.262;14.208;2024-03-08T07:27:33;98330.41;;;1.90;100.00
79481;BME280;68944;48.262;14.208;2024-03-08T07:30:05;98330.78;;;2.04;100.00
79481;BME280;68944;48.262;14.208;2024-03-08T07:32:31;98325.84;;;2.18;100.00
79481;BME280;68944;48.262;14.208;2024-03-08T07:34:57;98318.81;;;2.18;100.00
79481;BME280;68944;48.262;14.208;2024-03-08T07:37:22;98318.31;;;2.23;100.00
79481;BME280;68944;48.262;14.208;2024-03-08T07:39:49;98320.94;;;2.31;100.00
79481;BME280;68944;48.262;14.208;2024-03-08T07:42:14;98318.78;;;2.35;100.00
79481;BME280;68944;48.262;14.208;2024-03-08T07:44:40;98311.09;;;2.42;100.00
79481;BME280;68944;48.262;14.208;2024-03-08T07:47:05;98314.69;;;2.49;100.00
79481;BME280;68944;48.262;14.208;2024-03-08T07:49:35;98310.75;;;2.53;100.00
79481;BME280;68944;48.262;14.208;2024-03-08T07:52:01;98305.19;;;2.56;100.00
79481;BME280;68944;48.262;14.208;2024-03-08T07:54:26;98306.31;;;2.62;100.00
79481;BME280;68944;48.262;14.208;2024-03-08T07:56:52;98308.78;;;2.64;100.00
79481;BME280;68944;48.262;14.208;2024-03-08T07:59:18;98304.50;;;2.71;100.00
79481;BME280;68944;48.262;14.208;2024-03-08T08:01:45;98298.91;;;2.74;100.00
79481;BME280;68944;48.262;14.208;2024-03-08T08:04:12;98294.97;;;2.78;100.00
79481;BME280;68944;48.262;14.208;2024-03-08T08:06:40;98295.41;;;2.90;100.00
79481;BME280;68944;48.262;14.208;2024-03-08T08:09:09;98289.34;;;2.98;100.00
79481;BME280;68944;48.262;14.208;2024-03-08T08:11:41;98274.59;;;3.05;100.00
79481;BME280;68944;48.262;14.208;2024-03-08T08:14:09;98276.16;;;3.15;100.00
79481;BME280;68944;48.262;14.208;2024-03-08T08:16:36;98277.91;;;3.23;100.00
79481;BME280;68944;48.262;14.208;2024-03-08T08:19:07;98264.94;;;3.29;100.00
79481;BME280;68944;48.262;14.208;2024-03-08T08:21:36;98261.81;;;3.34;100.00
79481;BME280;68944;48.262;14.208;2024-03-08T08:24:05;98262.09;;;3.39;100.00
79481;BME280;68944;48.262;14.208;2024-03-08T08:26:31;98268.56;;;3.52;100.00
79481;BME280;68944;48.262;14.208;2024-03-08T08:28:58;98264.66;;;3.71;100.00
79481;BME280;68944;48.262;14.208;2024-03-08T08:31:25;98267.28;;;3.71;100.00
79481;BME280;68944;48.262;14.208;2024-03-08T08:33:50;98251.09;;;3.68;100.00
79481;BME280;68944;48.262;14.208;2024-03-08T08:36:20;98255.00;;;3.72;100.00
79481;BME280;68944;48.262;14.208;2024-03-08T08:38:46;98252.88;;;3.91;100.00
79481;BME280;68944;48.262;14.208;2024-03-08T08:41:12;98252.63;;;4.16;100.00
79481;BME280;68944;48.262;14.208;2024-03-08T08:43:38;98245.03;;;4.36;100.00
79481;BME280;68944;48.262;14.208;2024-03-08T08:46:04;98244.22;;;4.51;100.00
79481;BME280;68944;48.262;14.208;2024-03-08T08:48:30;98240.16;;;4.63;100.00
79481;BME280;68944;48.262;14.208;2024-03-08T08:50:56;98238.31;;;4.79;100.00
79481;BME280;68944;48.262;14.208;2024-03-08T08:53:21;98225.19;;;4.79;100.00
79481;BME280;68944;48.262;14.208;2024-03-08T08:55:47;98222.28;;;4.89;100.00
79481;BME280;68944;48.262;14.208;2024-03-08T08:58:13;98220.28;;;4.91;100.00
79481;BME280;68944;48.262;14.208;2024-03-08T09:00:39;98219.00;;;5.02;100.00
79481;BME280;68944;48.262;14.208;2024-03-08T09:03:05;98214.97;;;5.06;100.00
79481;BME280;68944;48.262;14.208;2024-03-08T09:05:32;98214.06;;;5.14;100.00
79481;BME280;68944;48.262;14.208;2024-03-08T09:07:59;98212.25;;;5.15;100.00
79481;BME280;68944;48.262;14.208;2024-03-08T09:10:25;98200.47;;;5.10;100.00
79481;BME280;68944;48.262;14.208;2024-03-08T09:12:52;98204.94;;;5.10;100.00
79481;BME280;68944;48.262;14.208;2024-03-08T09:15:18;98195.75;;;5.21;100.00
79481;BME280;68944;48.262;14.208;2024-03-08T09:17:47;98191.38;;;5.28;100.00
79481;BME280;68944;48.262;14.208;2024-03-08T09:20:13;98189.72;;;5.27;100.00
79481;BME280;68944;48.262;14.208;2024-03-08T09:22:43;98188.81;;;5.35;100.00
79481;BME280;68944;48.262;14.208;2024-03-08T09:25:09;98184.28;;;5.29;100.00
79481;BME280;68944;48.262;14.208;2024-03-08T09:27:35;98180.91;;;5.35;100.00
79481;BME280;68944;48.262;14.208;2024-03-08T09:30:01;98180.09;;;5.34;100.00
79481;BME280;68944;48.262;14.208;2024-03-08T09:32:26;98178.97;;;5.44;100.00
79481;BME280;68944;48.262;14.208;2024-03-08T09:34:52;98177.06;;;5.60;100.00
79481;BME280;68944;48.262;14.208;2024-03-08T09:37:18;98182.19;;;5.68;100.00
79481;BME280;68944;48.262;14.208;2024-03-08T09:39:44;98172.63;;;5.60;100.00
79481;BME280;68944;48.262;14.208;2024-03-08T09:42:10;98168.75;;;5.56;100.00
79481;BME280;68944;48.262;14.208;2024-03-08T09:44:46;98170.28;;;5.72;100.00
79481;BME280;68944;48.262;14.208;2024-03-08T09:47:14;98171.16;;;5.79;100.00
79481;BME280;68944;48.262;14.208;2024-03-08T09:49:40;98175.97;;;5.76;100.00
79481;BME280;68944;48.262;14.208;2024-03-08T09:52:07;98166.31;;;5.83;100.00
79481;BME280;68944;48.262;14.208;2024-03-08T09:54:33;98156.69;;;5.97;100.00
79481;BME280;68944;48.262;14.208;2024-03-08T09:56:59;98157.59;;;6.11;100.00
79481;BME280;68944;48.262;14.208;2024-03-08T09:59:25;98160.09;;;6.26;100.00
79481;BME280;68944;48.262;14.208;2024-03-08T10:01:53;98152.50;;;6.45;100.00
79481;BME280;68944;48.262;14.208;2024-03-08T10:04:24;98143.63;;;6.53;100.00
79481;BME280;68944;48.262;14.208;2024-03-08T10:06:51;98149.31;;;6.64;100.00
79481;BME280;68944;48.262;14.208;2024-03-08T10:09:17;98148.56;;;6.77;100.00
79481;BME280;68944;48.262;14.208;2024-03-08T10:11:44;98141.50;;;6.91;100.00
79481;BME280;68944;48.262;14.208;2024-03-08T10:14:11;98140.09;;;7.02;100.00
79481;BME280;68944;48.262;14.208;2024-03-08T10:16:38;98133.63;;;7.11;100.00
79481;BME280;68944;48.262;14.208;2024-03-08T10:19:04;98130.78;;;7.13;100.00
79481;BME280;68944;48.262;14.208;2024-03-08T10:21:32;98138.88;;;7.25;100.00
79481;BME280;68944;48.262;14.208;2024-03-08T10:24:02;98136.03;;;7.40;100.00
79481;BME280;68944;48.262;14.208;2024-03-08T10:26:28;98125.69;;;7.66;100.00
79481;BME280;68944;48.262;14.208;2024-03-08T10:28:54;98134.38;;;7.80;100.00
79481;BME280;68944;48.262;14.208;2024-03-08T10:31:20;98122.19;;;7.92;100.00
79481;BME280;68944;48.262;14.208;2024-03-08T10:33:46;98121.75;;;8.09;100.00
79481;BME280;68944;48.262;14.208;2024-03-08T10:36:15;98125.75;;;8.18;100.00
79481;BME280;68944;48.262;14.208;2024-03-08T10:38:42;98121.28;;;8.19;100.00
79481;BME280;68944;48.262;14.208;2024-03-08T10:41:09;98122.03;;;8.33;100.00
79481;BME280;68944;48.262;14.208;2024-03-08T10:47:00;98114.38;;;8.71;100.00
79481;BME280;68944;48.262;14.208;2024-03-08T10:49:32;98114.69;;;9.14;100.00
79481;BME280;68944;48.262;14.208;2024-03-08T10:52:05;98118.03;;;9.28;100.00
79481;BME280;68944;48.262;14.208;2024-03-08T10:54:37;98116.91;;;9.42;100.00
79481;BME280;68944;48.262;14.208;2024-03-08T10:57:06;98104.31;;;9.63;100.00
79481;BME280;68944;48.262;14.208;2024-03-08T10:59:34;98114.56;;;9.53;100.00
79481;BME280;68944;48.262;14.208;2024-03-08T11:02:01;98098.69;;;9.53;100.00
79481;BME280;68944;48.262;14.208;2024-03-08T11:04:26;98104.13;;;9.39;100.00
79481;BME280;68944;48.262;14.208;2024-03-08T11:07:00;98101.22;;;9.85;100.00
79481;BME280;68944;48.262;14.208;2024-03-08T11:12:38;98102.28;;;10.03;100.00
79481;BME280;68944;48.262;14.208;2024-03-08T11:15:10;98089.03;;;10.03;100.00
79481;BME280;68944;48.262;14.208;2024-03-08T11:20:17;98081.09;;;10.53;100.00
79481;BME280;68944;48.262;14.208;2024-03-08T11:22:52;98072.50;;;10.39;100.00
79481;BME280;68944;48.262;14.208;2024-03-08T11:28:23;98071.13;;;10.67;100.00
79481;BME280;68944;48.262;14.208;2024-03-08T11:33:24;98061.16;;;10.81;100.00
79481;BME280;68944;48.262;14.208;2024-03-08T11:35:52;98062.97;;;10.80;100.00
79481;BME280;68944;48.262;14.208;2024-03-08T11:38:17;98057.13;;;10.90;100.00
79481;BME280;68944;48.262;14.208;2024-03-08T11:40:46;98046.06;;;10.81;100.00
79481;BME280;68944;48.262;14.208;2024-03-08T11:43:16;98043.56;;;11.35;100.00
79481;BME280;68944;48.262;14.208;2024-03-08T11:45:41;98040.22;;;11.40;100.00
79481;BME280;68944;48.262;14.208;2024-03-08T11:48:07;98036.41;;;11.47;100.00
79481;BME280;68944;48.262;14.208;2024-03-08T11:50:33;98036.47;;;11.77;100.00
79481;BME280;68944;48.262;14.208;2024-03-08T11:53:03;98037.31;;;12.06;100.00
79481;BME280;68944;48.262;14.208;2024-03-08T11:55:30;98037.56;;;12.05;100.00
79481;BME280;68944;48.262;14.208;2024-03-08T11:58:02;98030.59;;;11.75;100.00
79481;BME280;68944;48.262;14.208;2024-03-08T12:00:27;98033.88;;;11.94;100.00
79481;BME280;68944;48.262;14.208;2024-03-08T12:03:04;98021.44;;;11.82;100.00
79481;BME280;68944;48.262;14.208;2024-03-08T12:05:30;98027.63;;;12.00;100.00
79481;BME280;68944;48.262;14.208;2024-03-08T12:07:59;98026.84;;;12.29;100.00
79481;BME280;68944;48.262;14.208;2024-03-08T12:10:25;98016.22;;;12.58;100.00
79481;BME280;68944;48.262;14.208;2024-03-08T12:12:53;98017.50;;;12.73;100.00
79481;BME280;68944;48.262;14.208;2024-03-08T12:15:20;98006.91;;;12.26;97.72
79481;BME280;68944;48.262;14.208;2024-03-08T12:17:48;98014.34;;;12.12;98.54
79481;BME280;68944;48.262;14.208;2024-03-08T12:20:23;98004.16;;;12.09;96.41
79481;BME280;68944;48.262;14.208;2024-03-08T12:22:50;98006.25;;;12.07;99.66
79481;BME280;68944;48.262;14.208;2024-03-08T12:25:22;97997.94;;;11.74;98.35
79481;BME280;68944;48.262;14.208;2024-03-08T12:27:48;97998.66;;;11.99;98.12
79481;BME280;68944;48.262;14.208;2024-03-08T12:30:25;97997.19;;;12.49;97.26
79481;BME280;68944;48.262;14.208;2024-03-08T12:32:59;97997.59;;;12.58;97.94
79481;BME280;68944;48.262;14.208;2024-03-08T12:35:26;97991.63;;;12.51;95.62
79481;BME280;68944;48.262;14.208;2024-03-08T12:37:54;97987.28;;;12.96;88.38
79481;BME280;68944;48.262;14.208;2024-03-08T12:40:30;97982.72;;;12.74;92.02
79481;BME280;68944;48.262;14.208;2024-03-08T12:43:00;97982.13;;;12.90;94.00
79481;BME280;68944;48.262;14.208;2024-03-08T12:45:26;97986.81;;;13.39;88.99
79481;BME280;68944;48.262;14.208;2024-03-08T12:47:55;97980.50;;;13.46;89.32
79481;BME280;68944;48.262;14.208;2024-03-08T12:50:22;97980.22;;;13.47;87.81
79481;BME280;68944;48.262;14.208;2024-03-08T12:52:50;97983.88;;;13.41;84.82
79481;BME280;68944;48.262;14.208;2024-03-08T12:55:16;97979.47;;;13.69;80.14
79481;BME280;68944;48.262;14.208;2024-03-08T12:57:43;97978.84;;;13.62;81.93
79481;BME280;68944;48.262;14.208;2024-03-08T13:00:09;97967.09;;;13.58;82.06
79481;BME280;68944;48.262;14.208;2024-03-08T13:02:47;97971.16;;;13.88;82.98
79481;BME280;68944;48.262;14.208;2024-03-08T13:05:13;97946.94;;;13.90;82.87
79481;BME280;68944;48.262;14.208;2024-03-08T13:07:41;97962.63;;;13.86;80.72